sensor_id;sensor_type;location;lat;lon;timestamp;P1;durP1;ratioP1;P2;durP2;ratioP2
45114;SDS011;30877;43.706;10.780;2023-12-07T00:00:30;15.88;;;11.02;;
45114;SDS011;30877;43.706;10.780;2023-12-07T00:02:59;15.85;;;11.60;;
45114;SDS011;30877;43.706;10.780;2023-12-07T00:05:28;14.18;;;10.73;;
45114;SDS011;30877;43.706;10.780;2023-12-07T00:07:58;12.68;;;9.38;;
45114;SDS011;30877;43.706;10.780;2023-12-07T00:10:26;13.68;;;10.25;;
45114;SDS011;30877;43.706;10.780;2023-12-07T00:12:55;14.43;;;10.35;;
45114;SDS011;30877;43.706;10.780;2023-12-07T00:15:26;14.93;;;10.38;;
45114;SDS011;30877;43.706;10.780;2023-12-07T00:17:55;15.05;;;9.93;;
45114;SDS011;30877;43.706;10.780;2023-12-07T00:20:24;15.00;;;9.98;;
45114;SDS011;30877;43.706;10.780;2023-12-07T00:22:53;12.55;;;9.27;;
45114;SDS011;30877;43.706;10.780;2023-12-07T00:25:23;14.80;;;10.07;;
45114;SDS011;30877;43.706;10.780;2023-12-07T00:27:51;12.93;;;9.52;;
45114;SDS011;30877;43.706;10.780;2023-12-07T00:30:19;12.88;;;9.50;;
45114;SDS011;30877;43.706;10.780;2023-12-07T00:32:48;14.60;;;10.32;;
45114;SDS011;30877;43.706;10.780;2023-12-07T00:35:17;13.82;;;10.05;;
45114;SDS011;30877;43.706;10.780;2023-12-07T00:37:49;13.25;;;9.52;;
45114;SDS011;30877;43.706;10.780;2023-12-07T00:40:17;13.45;;;9.50;;
45114;SDS011;30877;43.706;10.780;2023-12-07T00:42:48;11.85;;;9.05;;
45114;SDS011;30877;43.706;10.780;2023-12-07T00:45:18;14.32;;;9.65;;
45114;SDS011;30877;43.706;10.780;2023-12-07T00:47:48;13.75;;;9.82;;
45114;SDS011;30877;43.706;10.780;2023-12-07T00:50:16;15.48;;;9.98;;
45114;SDS011;30877;43.706;10.780;2023-12-07T00:52:45;13.82;;;9.25;;
45114;SDS011;30877;43.706;10.780;2023-12-07T00:55:17;13.15;;;9.77;;
45114;SDS011;30877;43.706;10.780;2023-12-07T00:57:45;12.82;;;9.20;;
45114;SDS011;30877;43.706;10.780;2023-12-07T01:00:17;15.93;;;10.88;;
45114;SDS011;30877;43.706;10.780;2023-12-07T01:02:47;18.73;;;10.13;;
45114;SDS011;30877;43.706;10.780;2023-12-07T01:05:15;14.05;;;9.40;;
45114;SDS011;30877;43.706;10.780;2023-12-07T01:07:43;14.00;;;10.05;;
45114;SDS011;30877;43.706;10.780;2023-12-07T01:10:15;15.50;;;10.23;;
45114;SDS011;30877;43.706;10.780;2023-12-07T01:12:45;13.13;;;9.15;;
45114;SDS011;30877;43.706;10.780;2023-12-07T01:15:16;15.23;;;10.30;;
45114;SDS011;30877;43.706;10.780;2023-12-07T01:17:45;13.77;;;9.60;;
45114;SDS011;30877;43.706;10.780;2023-12-07T01:20:14;13.65;;;8.57;;
45114;SDS011;30877;43.706;10.780;2023-12-07T01:22:44;13.52;;;9.10;;
45114;SDS011;30877;43.706;10.780;2023-12-07T01:25:14;13.95;;;9.85;;
45114;SDS011;30877;43.706;10.780;2023-12-07T01:27:50;14.27;;;10.20;;
45114;SDS011;30877;43.706;10.780;2023-12-07T01:30:21;13.38;;;10.07;;
45114;SDS011;30877;43.706;10.780;2023-12-07T01:35:38;13.73;;;9.57;;
45114;SDS011;30877;43.706;10.780;2023-12-07T01:38:06;13.93;;;8.60;;
45114;SDS011;30877;43.706;10.780;2023-12-07T01:40:34;12.65;;;8.35;;
45114;SDS011;30877;43.706;10.780;2023-12-07T01:43:03;12.05;;;7.97;;
45114;SDS011;30877;43.706;10.780;2023-12-07T01:45:33;13.80;;;9.45;;
45114;SDS011;30877;43.706;10.780;2023-12-07T01:48:07;14.38;;;9.60;;
45114;SDS011;30877;43.706;10.780;2023-12-07T01:50:36;14.45;;;9.77;;
45114;SDS011;30877;43.706;10.780;2023-12-07T01:53:05;13.68;;;9.65;;
45114;SDS011;30877;43.706;10.780;2023-12-07T01:55:35;12.50;;;8.65;;
45114;SDS011;30877;43.706;10.780;2023-12-07T01:58:07;14.32;;;9.60;;
45114;SDS011;30877;43.706;10.780;2023-12-07T02:00:39;14.15;;;10.05;;
45114;SDS011;30877;43.706;10.780;2023-12-07T02:03:08;14.90;;;10.40;;
45114;SDS011;30877;43.706;10.780;2023-12-07T02:05:36;17.08;;;10.65;;
45114;SDS011;30877;43.706;10.780;2023-12-07T02:08:05;16.08;;;11.02;;
45114;SDS011;30877;43.706;10.780;2023-12-07T02:10:36;17.13;;;11.10;;
45114;SDS011;30877;43.706;10.780;2023-12-07T02:13:04;17.33;;;11.35;;
45114;SDS011;30877;43.706;10.780;2023-12-07T02:15:34;15.43;;;10.90;;
45114;SDS011;30877;43.706;10.780;2023-12-07T02:18:10;15.65;;;10.98;;
45114;SDS011;30877;43.706;10.780;2023-12-07T02:20:45;17.25;;;11.18;;
45114;SDS011;30877;43.706;10.780;2023-12-07T02:23:19;15.30;;;10.35;;
45114;SDS011;30877;43.706;10.780;2023-12-07T02:29:01;15.48;;;10.07;;
45114;SDS011;30877;43.706;10.780;2023-12-07T02:31:30;15.90;;;10.43;;
45114;SDS011;30877;43.706;10.780;2023-12-07T02:33:59;14.77;;;10.45;;
45114;SDS011;30877;43.706;10.780;2023-12-07T02:36:28;13.40;;;9.77;;
45114;SDS011;30877;43.706;10.780;2023-12-07T02:38:59;14.70;;;9.95;;
45114;SDS011;30877;43.706;10.780;2023-12-07T02:41:32;12.82;;;9.40;;
45114;SDS011;30877;43.706;10.780;2023-12-07T02:44:01;13.73;;;9.65;;
45114;SDS011;30877;43.706;10.780;2023-12-07T02:46:30;13.98;;;9.63;;
45114;SDS011;30877;43.706;10.780;2023-12-07T02:49:01;13.35;;;9.35;;
45114;SDS011;30877;43.706;10.780;2023-12-07T02:51:29;14.02;;;9.23;;
45114;SDS011;30877;43.706;10.780;2023-12-07T02:53:58;13.80;;;9.55;;
45114;SDS011;30877;43.706;10.780;2023-12-07T02:56:27;14.10;;;9.73;;
45114;SDS011;30877;43.706;10.780;2023-12-07T02:58:57;12.40;;;8.40;;
45114;SDS011;30877;43.706;10.780;2023-12-07T03:01:26;14.05;;;9.43;;
45114;SDS011;30877;43.706;10.780;2023-12-07T03:03:57;14.32;;;9.02;;
45114;SDS011;30877;43.706;10.780;2023-12-07T03:06:27;14.57;;;10.00;;
45114;SDS011;30877;43.706;10.780;2023-12-07T03:08:55;12.35;;;8.45;;
45114;SDS011;30877;43.706;10.780;2023-12-07T03:11:24;12.90;;;8.32;;
45114;SDS011;30877;43.706;10.780;2023-12-07T03:13:52;12.82;;;8.27;;
45114;SDS011;30877;43.706;10.780;2023-12-07T03:16:23;13.35;;;8.60;;
45114;SDS011;30877;43.706;10.780;2023-12-07T03:18:52;11.88;;;8.20;;
45114;SDS011;30877;43.706;10.780;2023-12-07T03:24:23;12.57;;;8.95;;
45114;SDS011;30877;43.706;10.780;2023-12-07T03:26:53;12.05;;;7.72;;
45114;SDS011;30877;43.706;10.780;2023-12-07T03:29:23;11.13;;;7.53;;
45114;SDS011;30877;43.706;10.780;2023-12-07T03:31:53;10.20;;;6.65;;
45114;SDS011;30877;43.706;10.780;2023-12-07T03:34:22;10.10;;;6.38;;
45114;SDS011;30877;43.706;10.780;2023-12-07T03:36:50;10.15;;;7.00;;
45114;SDS011;30877;43.706;10.780;2023-12-07T03:39:19;10.93;;;6.97;;
45114;SDS011;30877;43.706;10.780;2023-12-07T03:41:49;11.68;;;6.97;;
45114;SDS011;30877;43.706;10.780;2023-12-07T03:44:20;9.32;;;6.68;;
45114;SDS011;30877;43.706;10.780;2023-12-07T03:46:48;11.30;;;6.35;;
45114;SDS011;30877;43.706;10.780;2023-12-07T03:49:19;10.00;;;6.38;;
45114;SDS011;30877;43.706;10.780;2023-12-07T03:51:49;11.85;;;7.32;;
45114;SDS011;30877;43.706;10.780;2023-12-07T03:54:17;10.82;;;6.35;;
45114;SDS011;30877;43.706;10.780;2023-12-07T03:56:46;9.57;;;6.00;;
45114;SDS011;30877;43.706;10.780;2023-12-07T03:59:15;9.48;;;6.78;;
45114;SDS011;30877;43.706;10.780;2023-12-07T04:01:43;9.93;;;7.07;;
45114;SDS011;30877;43.706;10.780;2023-12-07T04:04:13;10.15;;;6.55;;
45114;SDS011;30877;43.706;10.780;2023-12-07T04:06:44;9.85;;;6.50;;
45114;SDS011;30877;43.706;10.780;2023-12-07T04:09:16;10.75;;;6.07;;
45114;SDS011;30877;43.706;10.780;2023-12-07T04:11:45;9.68;;;5.93;;
45114;SDS011;30877;43.706;10.780;2023-12-07T04:14:15;9.43;;;5.55;;
45114;SDS011;30877;43.706;10.780;2023-12-07T04:16:44;7.65;;;4.82;;
45114;SDS011;30877;43.706;10.780;2023-12-07T04:19:15;6.95;;;4.55;;
45114;SDS011;30877;43.706;10.780;2023-12-07T04:21:47;6.45;;;4.80;;
45114;SDS011;30877;43.706;10.780;2023-12-07T04:24:16;7.78;;;4.85;;
45114;SDS011;30877;43.706;10.780;2023-12-07T04:26:45;8.02;;;5.15;;
45114;SDS011;30877;43.706;10.780;2023-12-07T04:29:15;9.25;;;5.70;;
45114;SDS011;30877;43.706;10.780;2023-12-07T04:31:43;8.45;;;5.35;;
45114;SDS011;30877;43.706;10.780;2023-12-07T04:34:12;7.85;;;4.95;;
45114;SDS011;30877;43.706;10.780;2023-12-07T04:36:40;6.95;;;4.68;;
45114;SDS011;30877;43.706;10.780;2023-12-07T04:39:11;9.20;;;5.68;;
45114;SDS011;30877;43.706;10.780;2023-12-07T04:41:40;8.45;;;5.47;;
45114;SDS011;30877;43.706;10.780;2023-12-07T04:44:09;9.35;;;5.72;;
45114;SDS011;30877;43.706;10.780;2023-12-07T04:46:38;8.48;;;5.05;;
45114;SDS011;30877;43.706;10.780;2023-12-07T04:49:06;8.35;;;5.07;;
45114;SDS011;30877;43.706;10.780;2023-12-07T04:51:35;8.82;;;5.88;;
45114;SDS011;30877;43.706;10.780;2023-12-07T04:54:03;9.73;;;5.93;;
45114;SDS011;30877;43.706;10.780;2023-12-07T04:56:46;11.15;;;6.38;;
45114;SDS011;30877;43.706;10.780;2023-12-07T04:59:15;9.38;;;6.07;;
45114;SDS011;30877;43.706;10.780;2023-12-07T05:01:45;10.70;;;6.15;;
45114;SDS011;30877;43.706;10.780;2023-12-07T05:04:15;8.73;;;5.82;;
45114;SDS011;30877;43.706;10.780;2023-12-07T05:06:43;9.20;;;6.10;;
45114;SDS011;30877;43.706;10.780;2023-12-07T05:09:11;9.27;;;6.47;;
45114;SDS011;30877;43.706;10.780;2023-12-07T05:11:41;10.45;;;7.22;;
45114;SDS011;30877;43.706;10.780;2023-12-07T05:14:11;10.85;;;7.38;;
45114;SDS011;30877;43.706;10.780;2023-12-07T05:16:40;9.30;;;6.20;;
45114;SDS011;30877;43.706;10.780;2023-12-07T05:19:09;11.00;;;7.20;;
45114;SDS011;30877;43.706;10.780;2023-12-07T05:21:38;10.38;;;7.18;;
45114;SDS011;30877;43.706;10.780;2023-12-07T05:24:09;11.60;;;7.03;;
45114;SDS011;30877;43.706;10.780;2023-12-07T05:26:37;9.75;;;7.07;;
45114;SDS011;30877;43.706;10.780;2023-12-07T05:29:06;11.73;;;6.75;;
45114;SDS011;30877;43.706;10.780;2023-12-07T05:31:37;10.50;;;7.88;;
45114;SDS011;30877;43.706;10.780;2023-12-07T05:34:06;11.30;;;7.15;;
45114;SDS011;30877;43.706;10.780;2023-12-07T05:36:35;13.63;;;8.65;;
45114;SDS011;30877;43.706;10.780;2023-12-07T05:39:04;11.52;;;7.75;;
45114;SDS011;30877;43.706;10.780;2023-12-07T05:41:34;12.07;;;8.15;;
45114;SDS011;30877;43.706;10.780;2023-12-07T05:44:03;12.30;;;7.82;;
45114;SDS011;30877;43.706;10.780;2023-12-07T05:46:31;9.32;;;7.03;;
45114;SDS011;30877;43.706;10.780;2023-12-07T05:49:06;11.70;;;7.70;;
45114;SDS011;30877;43.706;10.780;2023-12-07T05:51:35;10.75;;;7.65;;
45114;SDS011;30877;43.706;10.780;2023-12-07T05:54:03;11.13;;;7.75;;
45114;SDS011;30877;43.706;10.780;2023-12-07T05:56:33;11.52;;;8.40;;
45114;SDS011;30877;43.706;10.780;2023-12-07T05:59:02;12.45;;;7.35;;
45114;SDS011;30877;43.706;10.780;2023-12-07T06:01:30;13.68;;;8.70;;
45114;SDS011;30877;43.706;10.780;2023-12-07T06:03:59;11.20;;;8.05;;
45114;SDS011;30877;43.706;10.780;2023-12-07T06:06:29;11.18;;;7.40;;
45114;SDS011;30877;43.706;10.780;2023-12-07T06:09:00;10.90;;;7.95;;
45114;SDS011;30877;43.706;10.780;2023-12-07T06:11:28;9.20;;;6.65;;
45114;SDS011;30877;43.706;10.780;2023-12-07T06:13:57;13.13;;;7.30;;
45114;SDS011;30877;43.706;10.780;2023-12-07T06:16:27;10.93;;;7.25;;
45114;SDS011;30877;43.706;10.780;2023-12-07T06:18:57;11.43;;;7.05;;
45114;SDS011;30877;43.706;10.780;2023-12-07T06:21:25;9.75;;;6.97;;
45114;SDS011;30877;43.706;10.780;2023-12-07T06:23:58;11.05;;;7.70;;
45114;SDS011;30877;43.706;10.780;2023-12-07T06:26:30;9.98;;;6.80;;
45114;SDS011;30877;43.706;10.780;2023-12-07T06:29:00;10.77;;;7.38;;
45114;SDS011;30877;43.706;10.780;2023-12-07T06:31:28;10.57;;;7.38;;
45114;SDS011;30877;43.706;10.780;2023-12-07T06:33:57;10.98;;;6.75;;
45114;SDS011;30877;43.706;10.780;2023-12-07T06:36:28;9.48;;;6.90;;
45114;SDS011;30877;43.706;10.780;2023-12-07T06:38:59;10.18;;;6.55;;
45114;SDS011;30877;43.706;10.780;2023-12-07T06:41:27;10.55;;;7.32;;
45114;SDS011;30877;43.706;10.780;2023-12-07T06:43:56;10.32;;;6.82;;
45114;SDS011;30877;43.706;10.780;2023-12-07T06:46:25;10.98;;;6.82;;
45114;SDS011;30877;43.706;10.780;2023-12-07T06:48:55;10.70;;;7.15;;
45114;SDS011;30877;43.706;10.780;2023-12-07T06:51:25;12.88;;;8.73;;
45114;SDS011;30877;43.706;10.780;2023-12-07T06:53:55;12.02;;;7.55;;
45114;SDS011;30877;43.706;10.780;2023-12-07T06:56:25;12.55;;;7.50;;
45114;SDS011;30877;43.706;10.780;2023-12-07T06:58:55;12.13;;;7.43;;
45114;SDS011;30877;43.706;10.780;2023-12-07T07:01:23;10.95;;;7.20;;
45114;SDS011;30877;43.706;10.780;2023-12-07T07:03:53;10.98;;;7.15;;
45114;SDS011;30877;43.706;10.780;2023-12-07T07:06:22;11.73;;;7.95;;
45114;SDS011;30877;43.706;10.780;2023-12-07T07:08:50;13.52;;;7.50;;
45114;SDS011;30877;43.706;10.780;2023-12-07T07:11:22;9.85;;;6.70;;
45114;SDS011;30877;43.706;10.780;2023-12-07T07:13:52;12.35;;;7.30;;
45114;SDS011;30877;43.706;10.780;2023-12-07T07:16:22;11.75;;;7.55;;
45114;SDS011;30877;43.706;10.780;2023-12-07T07:18:52;13.77;;;8.07;;
45114;SDS011;30877;43.706;10.780;2023-12-07T07:21:22;10.45;;;6.63;;
45114;SDS011;30877;43.706;10.780;2023-12-07T07:23:50;11.32;;;7.10;;
45114;SDS011;30877;43.706;10.780;2023-12-07T07:26:21;10.18;;;7.20;;
45114;SDS011;30877;43.706;10.780;2023-12-07T07:28:50;12.65;;;7.20;;
45114;SDS011;30877;43.706;10.780;2023-12-07T07:31:20;12.48;;;7.10;;
45114;SDS011;30877;43.706;10.780;2023-12-07T07:33:49;12.25;;;7.43;;
45114;SDS011;30877;43.706;10.780;2023-12-07T07:36:27;10.75;;;6.47;;
45114;SDS011;30877;43.706;10.780;2023-12-07T07:38:59;10.75;;;6.43;;
45114;SDS011;30877;43.706;10.780;2023-12-07T07:41:30;11.50;;;7.30;;
45114;SDS011;30877;43.706;10.780;2023-12-07T07:44:00;11.18;;;7.07;;
45114;SDS011;30877;43.706;10.780;2023-12-07T07:46:31;11.43;;;7.05;;
45114;SDS011;30877;43.706;10.780;2023-12-07T07:49:00;10.35;;;7.05;;
45114;SDS011;30877;43.706;10.780;2023-12-07T07:51:31;11.25;;;7.22;;
45114;SDS011;30877;43.706;10.780;2023-12-07T07:54:01;10.65;;;7.15;;
45114;SDS011;30877;43.706;10.780;2023-12-07T07:56:30;10.52;;;6.97;;
45114;SDS011;30877;43.706;10.780;2023-12-07T07:59:00;10.50;;;7.10;;
45114;SDS011;30877;43.706;10.780;2023-12-07T08:01:30;10.45;;;6.15;;
45114;SDS011;30877;43.706;10.780;2023-12-07T08:03:59;10.63;;;7.30;;
45114;SDS011;30877;43.706;10.780;2023-12-07T08:06:28;9.43;;;6.40;;
45114;SDS011;30877;43.706;10.780;2023-12-07T08:08:59;9.50;;;6.85;;
45114;SDS011;30877;43.706;10.780;2023-12-07T08:11:29;11.90;;;7.22;;
45114;SDS011;30877;43.706;10.780;2023-12-07T08:14:01;12.07;;;7.53;;
45114;SDS011;30877;43.706;10.780;2023-12-07T08:16:30;11.75;;;7.03;;
45114;SDS011;30877;43.706;10.780;2023-12-07T08:18:59;10.80;;;6.50;;
45114;SDS011;30877;43.706;10.780;2023-12-07T08:21:28;10.65;;;6.80;;
45114;SDS011;30877;43.706;10.780;2023-12-07T08:23:57;10.93;;;6.40;;
45114;SDS011;30877;43.706;10.780;2023-12-07T08:26:26;9.27;;;6.65;;
45114;SDS011;30877;43.706;10.780;2023-12-07T08:28:55;10.10;;;6.20;;
45114;SDS011;30877;43.706;10.780;2023-12-07T08:31:26;9.45;;;6.72;;
45114;SDS011;30877;43.706;10.780;2023-12-07T08:33:55;10.45;;;6.97;;
45114;SDS011;30877;43.706;10.780;2023-12-07T08:36:24;11.48;;;7.30;;
45114;SDS011;30877;43.706;10.780;2023-12-07T08:38:54;11.38;;;7.03;;
45114;SDS011;30877;43.706;10.780;2023-12-07T08:41:23;10.98;;;7.13;;
45114;SDS011;30877;43.706;10.780;2023-12-07T08:43:52;11.45;;;7.30;;
45114;SDS011;30877;43.706;10.780;2023-12-07T08:46:21;10.40;;;6.72;;
45114;SDS011;30877;43.706;10.780;2023-12-07T08:48:51;10.30;;;6.65;;
45114;SDS011;30877;43.706;10.780;2023-12-07T08:51:21;10.40;;;6.75;;
45114;SDS011;30877;43.706;10.780;2023-12-07T08:53:50;13.38;;;6.72;;
45114;SDS011;30877;43.706;10.780;2023-12-07T08:56:21;10.55;;;6.07;;
45114;SDS011;30877;43.706;10.780;2023-12-07T08:58:51;8.82;;;5.78;;
45114;SDS011;30877;43.706;10.780;2023-12-07T09:01:19;10.98;;;6.53;;
45114;SDS011;30877;43.706;10.780;2023-12-07T09:04:00;9.88;;;6.40;;
45114;SDS011;30877;43.706;10.780;2023-12-07T09:06:31;10.25;;;6.63;;
45114;SDS011;30877;43.706;10.780;2023-12-07T09:09:01;10.85;;;6.90;;
45114;SDS011;30877;43.706;10.780;2023-12-07T09:11:32;9.82;;;6.15;;
45114;SDS011;30877;43.706;10.780;2023-12-07T09:14:00;11.93;;;7.07;;
45114;SDS011;30877;43.706;10.780;2023-12-07T09:16:31;9.57;;;6.50;;
45114;SDS011;30877;43.706;10.780;2023-12-07T09:19:01;10.35;;;6.93;;
45114;SDS011;30877;43.706;10.780;2023-12-07T09:21:31;10.05;;;6.22;;
45114;SDS011;30877;43.706;10.780;2023-12-07T09:23:59;10.10;;;5.45;;
45114;SDS011;30877;43.706;10.780;2023-12-07T09:26:27;8.25;;;5.55;;
45114;SDS011;30877;43.706;10.780;2023-12-07T09:28:57;10.27;;;6.38;;
45114;SDS011;30877;43.706;10.780;2023-12-07T09:31:28;9.40;;;6.07;;
45114;SDS011;30877;43.706;10.780;2023-12-07T09:34:02;9.13;;;6.22;;
45114;SDS011;30877;43.706;10.780;2023-12-07T09:36:39;8.70;;;5.50;;
45114;SDS011;30877;43.706;10.780;2023-12-07T09:39:07;10.27;;;6.25;;
45114;SDS011;30877;43.706;10.780;2023-12-07T09:41:39;8.57;;;6.18;;
45114;SDS011;30877;43.706;10.780;2023-12-07T09:44:10;8.13;;;5.40;;
45114;SDS011;30877;43.706;10.780;2023-12-07T09:46:39;8.77;;;6.38;;
45114;SDS011;30877;43.706;10.780;2023-12-07T09:49:09;8.57;;;5.75;;
45114;SDS011;30877;43.706;10.780;2023-12-07T09:51:40;11.70;;;6.53;;
45114;SDS011;30877;43.706;10.780;2023-12-07T09:54:09;9.93;;;6.57;;
45114;SDS011;30877;43.706;10.780;2023-12-07T09:56:40;10.85;;;6.10;;
45114;SDS011;30877;43.706;10.780;2023-12-07T09:59:08;8.32;;;5.95;;
45114;SDS011;30877;43.706;10.780;2023-12-07T10:01:37;10.50;;;6.78;;
45114;SDS011;30877;43.706;10.780;2023-12-07T10:04:18;9.82;;;6.38;;
45114;SDS011;30877;43.706;10.780;2023-12-07T10:06:48;9.18;;;6.65;;
45114;SDS011;30877;43.706;10.780;2023-12-07T10:09:20;10.32;;;6.40;;
45114;SDS011;30877;43.706;10.780;2023-12-07T10:12:02;9.45;;;6.18;;
45114;SDS011;30877;43.706;10.780;2023-12-07T10:14:30;10.20;;;7.13;;
45114;SDS011;30877;43.706;10.780;2023-12-07T10:16:59;8.85;;;6.05;;
45114;SDS011;30877;43.706;10.780;2023-12-07T10:19:29;9.90;;;6.10;;
45114;SDS011;30877;43.706;10.780;2023-12-07T10:22:00;8.35;;;5.85;;
45114;SDS011;30877;43.706;10.780;2023-12-07T10:24:30;9.27;;;6.22;;
45114;SDS011;30877;43.706;10.780;2023-12-07T10:26:58;9.90;;;6.00;;
45114;SDS011;30877;43.706;10.780;2023-12-07T10:29:35;9.50;;;6.47;;
45114;SDS011;30877;43.706;10.780;2023-12-07T10:32:05;10.02;;;6.93;;
45114;SDS011;30877;43.706;10.780;2023-12-07T10:34:36;8.73;;;6.68;;
45114;SDS011;30877;43.706;10.780;2023-12-07T10:37:05;10.20;;;6.70;;
45114;SDS011;30877;43.706;10.780;2023-12-07T10:39:35;10.63;;;8.00;;
45114;SDS011;30877;43.706;10.780;2023-12-07T10:42:05;10.88;;;7.50;;
45114;SDS011;30877;43.706;10.780;2023-12-07T10:44:41;10.27;;;6.85;;
45114;SDS011;30877;43.706;10.780;2023-12-07T10:47:13;9.30;;;6.38;;
45114;SDS011;30877;43.706;10.780;2023-12-07T10:49:44;13.60;;;7.60;;
45114;SDS011;30877;43.706;10.780;2023-12-07T10:52:20;12.13;;;6.60;;
45114;SDS011;30877;43.706;10.780;2023-12-07T10:54:54;7.80;;;5.85;;
45114;SDS011;30877;43.706;10.780;2023-12-07T10:57:32;8.90;;;5.55;;
45114;SDS011;30877;43.706;10.780;2023-12-07T11:00:05;8.88;;;6.35;;
45114;SDS011;30877;43.706;10.780;2023-12-07T11:02:37;8.02;;;5.53;;
45114;SDS011;30877;43.706;10.780;2023-12-07T11:05:11;8.77;;;6.20;;
45114;SDS011;30877;43.706;10.780;2023-12-07T11:07:42;8.18;;;5.85;;
45114;SDS011;30877;43.706;10.780;2023-12-07T11:10:25;9.10;;;6.18;;
45114;SDS011;30877;43.706;10.780;2023-12-07T11:13:00;8.02;;;5.68;;
45114;SDS011;30877;43.706;10.780;2023-12-07T11:15:39;8.18;;;5.82;;
45114;SDS011;30877;43.706;10.780;2023-12-07T11:18:07;8.10;;;5.78;;
45114;SDS011;30877;43.706;10.780;2023-12-07T11:20:42;7.78;;;5.82;;
45114;SDS011;30877;43.706;10.780;2023-12-07T11:23:15;8.13;;;5.95;;
45114;SDS011;30877;43.706;10.780;2023-12-07T11:25:48;8.68;;;6.45;;
45114;SDS011;30877;43.706;10.780;2023-12-07T11:28:19;8.57;;;6.03;;
45114;SDS011;30877;43.706;10.780;2023-12-07T11:31:02;8.77;;;6.45;;
45114;SDS011;30877;43.706;10.780;2023-12-07T11:33:32;8.00;;;6.20;;
45114;SDS011;30877;43.706;10.780;2023-12-07T11:36:06;7.82;;;5.75;;
45114;SDS011;30877;43.706;10.780;2023-12-07T11:38:36;7.03;;;5.90;;
45114;SDS011;30877;43.706;10.780;2023-12-07T11:41:05;8.35;;;5.45;;
45114;SDS011;30877;43.706;10.780;2023-12-07T11:43:37;7.68;;;5.25;;
45114;SDS011;30877;43.706;10.780;2023-12-07T11:46:11;7.47;;;5.47;;
45114;SDS011;30877;43.706;10.780;2023-12-07T11:48:49;8.15;;;6.32;;
45114;SDS011;30877;43.706;10.780;2023-12-07T11:51:20;8.55;;;6.40;;
45114;SDS011;30877;43.706;10.780;2023-12-07T11:53:48;7.93;;;5.85;;
45114;SDS011;30877;43.706;10.780;2023-12-07T11:56:18;7.80;;;5.78;;
45114;SDS011;30877;43.706;10.780;2023-12-07T11:58:48;6.57;;;5.13;;
45114;SDS011;30877;43.706;10.780;2023-12-07T12:01:17;7.93;;;6.00;;
45114;SDS011;30877;43.706;10.780;2023-12-07T12:03:47;10.40;;;6.90;;
45114;SDS011;30877;43.706;10.780;2023-12-07T12:06:16;7.63;;;5.50;;
45114;SDS011;30877;43.706;10.780;2023-12-07T12:08:46;7.93;;;5.30;;
45114;SDS011;30877;43.706;10.780;2023-12-07T12:11:16;9.18;;;5.53;;
45114;SDS011;30877;43.706;10.780;2023-12-07T12:13:46;8.07;;;4.63;;
45114;SDS011;30877;43.706;10.780;2023-12-07T12:16:18;8.63;;;5.75;;
45114;SDS011;30877;43.706;10.780;2023-12-07T12:18:48;7.00;;;4.88;;
45114;SDS011;30877;43.706;10.780;2023-12-07T12:21:16;8.23;;;5.18;;
45114;SDS011;30877;43.706;10.780;2023-12-07T12:23:49;5.78;;;4.68;;
45114;SDS011;30877;43.706;10.780;2023-12-07T12:26:20;6.13;;;4.63;;
45114;SDS011;30877;43.706;10.780;2023-12-07T12:28:50;7.35;;;5.20;;
45114;SDS011;30877;43.706;10.780;2023-12-07T12:31:21;6.95;;;4.72;;
45114;SDS011;30877;43.706;10.780;2023-12-07T12:33:50;6.30;;;4.65;;
45114;SDS011;30877;43.706;10.780;2023-12-07T12:36:22;6.13;;;4.85;;
45114;SDS011;30877;43.706;10.780;2023-12-07T12:38:56;6.35;;;4.35;;
45114;SDS011;30877;43.706;10.780;2023-12-07T12:41:24;7.05;;;5.13;;
45114;SDS011;30877;43.706;10.780;2023-12-07T12:43:53;5.63;;;4.88;;
45114;SDS011;30877;43.706;10.780;2023-12-07T12:46:21;6.65;;;5.60;;
45114;SDS011;30877;43.706;10.780;2023-12-07T12:48:56;8.07;;;5.57;;
45114;SDS011;30877;43.706;10.780;2023-12-07T12:51:26;6.50;;;5.70;;
45114;SDS011;30877;43.706;10.780;2023-12-07T12:53:58;8.05;;;5.40;;
45114;SDS011;30877;43.706;10.780;2023-12-07T12:56:27;7.90;;;5.25;;
45114;SDS011;30877;43.706;10.780;2023-12-07T12:58:57;6.50;;;5.40;;
45114;SDS011;30877;43.706;10.780;2023-12-07T13:01:32;5.57;;;4.97;;
45114;SDS011;30877;43.706;10.780;2023-12-07T13:04:01;6.60;;;5.10;;
45114;SDS011;30877;43.706;10.780;2023-12-07T13:06:31;6.97;;;5.70;;
45114;SDS011;30877;43.706;10.780;2023-12-07T13:09:01;9.60;;;5.43;;
45114;SDS011;30877;43.706;10.780;2023-12-07T13:11:30;7.10;;;5.22;;
45114;SDS011;30877;43.706;10.780;2023-12-07T13:13:58;7.07;;;5.53;;
45114;SDS011;30877;43.706;10.780;2023-12-07T13:16:26;7.90;;;5.90;;
45114;SDS011;30877;43.706;10.780;2023-12-07T13:18:56;7.60;;;5.95;;
45114;SDS011;30877;43.706;10.780;2023-12-07T13:21:25;7.28;;;5.60;;
45114;SDS011;30877;43.706;10.780;2023-12-07T13:23:53;8.20;;;5.97;;
45114;SDS011;30877;43.706;10.780;2023-12-07T13:26:24;7.18;;;5.68;;
45114;SDS011;30877;43.706;10.780;2023-12-07T13:28:57;7.47;;;6.10;;
45114;SDS011;30877;43.706;10.780;2023-12-07T13:31:28;8.25;;;5.40;;
45114;SDS011;30877;43.706;10.780;2023-12-07T13:36:37;6.72;;;5.55;;
45114;SDS011;30877;43.706;10.780;2023-12-07T13:39:11;7.95;;;6.57;;
45114;SDS011;30877;43.706;10.780;2023-12-07T13:41:58;7.38;;;5.90;;
45114;SDS011;30877;43.706;10.780;2023-12-07T13:44:33;9.52;;;6.35;;
45114;SDS011;30877;43.706;10.780;2023-12-07T13:47:01;8.65;;;6.35;;
45114;SDS011;30877;43.706;10.780;2023-12-07T13:49:31;5.30;;;4.75;;
45114;SDS011;30877;43.706;10.780;2023-12-07T13:52:01;7.50;;;5.85;;
45114;SDS011;30877;43.706;10.780;2023-12-07T13:54:34;7.30;;;5.45;;
45114;SDS011;30877;43.706;10.780;2023-12-07T13:57:22;7.22;;;6.13;;
45114;SDS011;30877;43.706;10.780;2023-12-07T13:59:54;14.07;;;6.30;;
45114;SDS011;30877;43.706;10.780;2023-12-07T14:02:23;7.57;;;6.13;;
45114;SDS011;30877;43.706;10.780;2023-12-07T14:04:54;6.68;;;5.40;;
45114;SDS011;30877;43.706;10.780;2023-12-07T14:07:22;7.72;;;5.93;;
45114;SDS011;30877;43.706;10.780;2023-12-07T14:09:52;7.28;;;6.25;;
45114;SDS011;30877;43.706;10.780;2023-12-07T14:12:27;9.75;;;6.93;;
45114;SDS011;30877;43.706;10.780;2023-12-07T14:14:56;8.75;;;6.18;;
45114;SDS011;30877;43.706;10.780;2023-12-07T14:17:25;6.65;;;5.65;;
45114;SDS011;30877;43.706;10.780;2023-12-07T14:20:07;6.13;;;5.10;;
45114;SDS011;30877;43.706;10.780;2023-12-07T14:22:58;7.50;;;5.40;;
45114;SDS011;30877;43.706;10.780;2023-12-07T14:25:32;7.22;;;6.03;;
45114;SDS011;30877;43.706;10.780;2023-12-07T14:28:06;7.15;;;6.10;;
45114;SDS011;30877;43.706;10.780;2023-12-07T14:30:34;9.98;;;6.40;;
45114;SDS011;30877;43.706;10.780;2023-12-07T14:33:03;8.52;;;5.82;;
45114;SDS011;30877;43.706;10.780;2023-12-07T14:35:32;8.15;;;6.47;;
45114;SDS011;30877;43.706;10.780;2023-12-07T14:38:03;8.05;;;6.53;;
45114;SDS011;30877;43.706;10.780;2023-12-07T14:40:35;9.13;;;6.63;;
45114;SDS011;30877;43.706;10.780;2023-12-07T14:43:03;7.95;;;6.45;;
45114;SDS011;30877;43.706;10.780;2023-12-07T14:45:37;9.32;;;6.72;;
45114;SDS011;30877;43.706;10.780;2023-12-07T14:48:08;10.38;;;6.97;;
45114;SDS011;30877;43.706;10.780;2023-12-07T14:50:37;8.15;;;6.10;;
45114;SDS011;30877;43.706;10.780;2023-12-07T14:53:06;7.72;;;6.18;;
45114;SDS011;30877;43.706;10.780;2023-12-07T14:55:35;9.75;;;7.28;;